Time;durP1;ratioP1;P1;durP2;ratioP2;P2;SDS_P1;SDS_P2;PMS_P1;PMS_P2;Temp;Humidity;BMP_temperature;BMP_pressure;BME280_temperature;BME280_humidity;BME280_pressure;Samples;Min_cycle;Max_cycle;Signal;HPM_P1;HPM_P2
2023/02/25 00:01:30;;;;;;;;;;;;;;;2.86;100.00;-18104.69;4972635;28;20305;-81
2023/02/25 00:03:55;;;;;;;;;;;;;;;2.86;100.00;-18104.81;4971375;28;19925;-81
2023/02/25 00:06:21;;;;;;;;;;;;;;;2.88;100.00;-18105.38;4971427;28;20349;-80
2023/02/25 00:08:47;;;;;;;;;;;;;;;2.88;100.00;-18105.25;4972211;28;19918;-81
2023/02/25 00:11:13;;;;;;;;;;;;;;;2.89;100.00;-18105.66;4972383;28;20394;-80
2023/02/25 00:13:39;;;;;;;;;;;;;;;2.88;100.00;-18105.38;4973696;28;19965;-80
2023/02/25 00:16:05;;;;;;;;;;;;;;;2.88;100.00;-18105.38;4971966;28;19918;-79
2023/02/25 00:18:31;;;;;;;;;;;;;;;2.87;100.00;-18104.97;4971368;28;19973;-79
2023/02/25 00:20:56;;;;;;;;;;;;;;;2.89;100.00;-18105.50;4971521;28;19963;-81
2023/02/25 00:23:21;;;;;;;;;;;;;;;2.88;100.00;-18105.38;4971631;28;19942;-80
2023/02/25 00:25:47;;;;;;;;;;;;;;;2.87;100.00;-18105.09;4970403;28;19953;-80
2023/02/25 00:28:12;;;;;;;;;;;;;;;2.86;100.00;-18104.69;4971865;28;19925;-81
2023/02/25 00:30:38;;;;;;;;;;;;;;;2.86;100.00;-18104.81;4971416;28;19918;-79
2023/02/25 00:33:05;;;;;;;;;;;;;;;2.86;100.00;-18104.81;4971109;28;19989;-79
2023/02/25 00:35:30;;;;;;;;;;;;;;;2.88;100.00;-18105.25;4971490;28;19926;-81
2023/02/25 00:37:55;;;;;;;;;;;;;;;2.85;100.00;-18104.41;4971789;28;20020;-81
2023/02/25 00:40:21;;;;;;;;;;;;;;;2.87;100.00;-18104.97;4971078;28;19928;-82
2023/02/25 00:42:48;;;;;;;;;;;;;;;2.89;100.00;-18105.66;4971795;28;19918;-81
2023/02/25 00:45:13;;;;;;;;;;;;;;;2.87;100.00;-18105.09;4972450;28;19994;-81
2023/02/25 00:47:38;;;;;;;;;;;;;;;2.89;100.00;-18105.66;4971620;28;19918;-82
2023/02/25 00:50:06;;;;;;;;;;;;;;;2.88;100.00;-18105.25;4974944;28;19918;-80
2023/02/25 00:52:32;;;;;;;;;;;;;;;2.89;100.00;-18105.50;4974565;28;19961;-81
2023/02/25 00:54:57;;;;;;;;;;;;;;;2.91;100.00;-18106.19;4972009;28;20737;-81
2023/02/25 00:57:22;;;;;;;;;;;;;;;2.91;100.00;-18106.06;4971853;28;19961;-81
2023/02/25 00:59:48;;;;;;;;;;;;;;;2.87;100.00;-18105.09;4973234;28;20374;-81
2023/02/25 01:02:14;;;;;;;;;;;;;;;2.83;100.00;-18103.84;4972972;28;20577;-81
2023/02/25 01:04:39;;;;;;;;;;;;;;;2.81;100.00;-18103.44;4973030;28;20334;-81
2023/02/25 01:07:04;;;;;;;;;;;;;;;2.85;100.00;-18104.41;4972655;28;19973;-81
2023/02/25 01:09:29;;;;;;;;;;;;;;;2.86;100.00;-18104.69;4973502;28;19925;-81
2023/02/25 01:11:55;;;;;;;;;;;;;;;2.88;100.00;-18105.25;4972124;28;20433;-81
2023/02/25 01:14:24;;;;;;;;;;;;;;;2.88;100.00;-18105.38;4972320;28;19922;-81
2023/02/25 01:16:51;;;;;;;;;;;;;;;2.86;100.00;-18104.81;4971239;28;19918;-81
2023/02/25 01:19:21;;;;;;;;;;;;;;;2.86;100.00;-18104.81;4973045;28;19922;-81
2023/02/25 01:21:48;;;;;;;;;;;;;;;2.86;100.00;-18104.81;4968928;28;19925;-81
2023/02/25 01:24:19;;;;;;;;;;;;;;;2.86;100.00;-18104.81;4971870;28;19926;-81
2023/02/25 01:26:45;;;;;;;;;;;;;;;2.85;100.00;-18104.53;4969217;28;19941;-81
2023/02/25 01:29:13;;;;;;;;;;;;;;;2.89;100.00;-18105.50;4962548;28;19957;-81
2023/02/25 01:31:38;;;;;;;;;;;;;;;2.89;100.00;-18105.66;4972656;28;19924;-81
2023/02/25 01:34:05;;;;;;;;;;;;;;;2.96;100.00;-18107.44;4971417;28;19922;-81
2023/02/25 01:36:30;;;;;;;;;;;;;;;3.00;100.00;-18108.56;4959256;28;19918;-81
2023/02/25 01:38:56;;;;;;;;;;;;;;;3.03;100.00;-18109.25;4971268;28;19929;-81
2023/02/25 01:41:22;;;;;;;;;;;;;;;3.02;100.00;-18109.09;4970937;28;20292;-81
2023/02/25 01:44:02;;;;;;;;;;;;;;;3.05;100.00;-18109.78;4971791;28;19918;-81
2023/02/25 01:46:28;;;;;;;;;;;;;;;3.04;100.00;-18109.66;4966852;28;19997;-81
2023/02/25 01:48:54;;;;;;;;;;;;;;;3.07;100.00;-18110.34;4952573;28;20390;-81
2023/02/25 01:51:22;;;;;;;;;;;;;;;3.09;100.00;-18110.91;4962982;28;19918;-81
2023/02/25 01:53:47;;;;;;;;;;;;;;;3.10;100.00;-18111.19;4970112;28;19918;-81
2023/02/25 01:56:15;;;;;;;;;;;;;;;3.09;100.00;-18111.03;4971322;28;19997;-81
2023/02/25 01:58:40;;;;;;;;;;;;;;;3.12;100.00;-18111.72;4971960;28;19919;-81
2023/02/25 02:01:09;;;;;;;;;;;;;;;3.11;100.00;-18111.47;4971154;28;19929;-81
2023/02/25 02:03:36;;;;;;;;;;;;;;;3.13;100.00;-18112.00;4972212;28;20471;-81
2023/02/25 02:06:01;;;;;;;;;;;;;;;3.14;100.00;-18112.28;4970609;28;19925;-81
2023/02/25 02:08:27;;;;;;;;;;;;;;;3.14;100.00;-18112.28;4972238;28;19922;-81
2023/02/25 02:10:52;;;;;;;;;;;;;;;3.15;100.00;-18112.56;4969605;28;20444;-81
2023/02/25 02:13:18;;;;;;;;;;;;;;;3.15;100.00;-18112.69;4971702;28;19922;-81
2023/02/25 02:15:50;;;;;;;;;;;;;;;3.13;100.00;-18112.00;4971113;28;19922;-81
2023/02/25 02:18:16;;;;;;;;;;;;;;;3.13;100.00;-18112.16;4971689;28;19925;-81
2023/02/25 02:21:01;;;;;;;;;;;;;;;3.16;100.00;-18112.84;4971830;28;19925;-82
2023/02/25 02:23:44;;;;;;;;;;;;;;;3.14;100.00;-18112.44;4948877;28;19977;-81
2023/02/25 02:26:27;;;;;;;;;;;;;;;3.15;100.00;-18112.56;4951771;28;19918;-81
2023/02/25 02:29:02;;;;;;;;;;;;;;;3.17;100.00;-18113.13;4950806;28;20391;-81
2023/02/25 02:31:38;;;;;;;;;;;;;;;3.19;100.00;-18113.53;4959983;28;19918;-81
2023/02/25 02:34:05;;;;;;;;;;;;;;;3.21;100.00;-18114.22;4970961;28;20397;-81
2023/02/25 02:36:33;;;;;;;;;;;;;;;3.22;100.00;-18114.50;4971017;28;19919;-81
2023/02/25 02:38:58;;;;;;;;;;;;;;;3.23;100.00;-18114.63;4971024;28;19922;-81
2023/02/25 02:41:49;;;;;;;;;;;;;;;3.25;100.00;-18115.19;4970936;28;19918;-81
2023/02/25 02:44:17;;;;;;;;;;;;;;;3.25;100.00;-18115.19;4968397;28;19922;-81
2023/02/25 02:46:53;;;;;;;;;;;;;;;3.26;100.00;-18115.59;4970606;28;20314;-81
2023/02/25 02:49:30;;;;;;;;;;;;;;;3.28;100.00;-18116.00;4970573;28;20146;-81
2023/02/25 02:51:58;;;;;;;;;;;;;;;3.29;100.00;-18116.44;4970652;28;19918;-81
2023/02/25 02:54:28;;;;;;;;;;;;;;;3.29;100.00;-18116.28;4968431;28;20018;-81
2023/02/25 02:56:54;;;;;;;;;;;;;;;3.29;100.00;-18116.44;4960698;28;19976;-80
2023/02/25 02:59:28;;;;;;;;;;;;;;;3.30;100.00;-18116.72;4971320;28;19922;-81
2023/02/25 03:02:02;;;;;;;;;;;;;;;3.28;100.00;-18116.16;4970433;28;19919;-80
2023/02/25 03:04:29;;;;;;;;;;;;;;;3.26;100.00;-18115.59;4970742;28;19977;-80
2023/02/25 03:06:58;;;;;;;;;;;;;;;3.31;100.00;-18116.84;4969850;28;20453;-81
2023/02/25 03:09:26;;;;;;;;;;;;;;;3.32;100.00;-18117.25;4967150;28;19922;-81
2023/02/25 03:11:51;;;;;;;;;;;;;;;3.32;100.00;-18117.13;4968778;28;19919;-81
2023/02/25 03:14:17;;;;;;;;;;;;;;;3.32;100.00;-18117.25;4970951;28;19930;-81
2023/02/25 03:17:08;;;;;;;;;;;;;;;3.35;100.00;-18118.09;4970656;28;19929;-81
2023/02/25 03:19:38;;;;;;;;;;;;;;;3.33;100.00;-18117.41;4960018;28;20009;-81
2023/02/25 03:22:06;;;;;;;;;;;;;;;3.32;100.00;-18117.13;4970661;28;19926;-81
2023/02/25 03:24:36;;;;;;;;;;;;;;;3.32;100.00;-18117.25;4970889;28;19941;-81
2023/02/25 03:27:18;;;;;;;;;;;;;;;3.33;100.00;-18117.53;4969769;28;19953;-81
2023/02/25 03:29:44;;;;;;;;;;;;;;;3.32;100.00;-18117.25;4970692;28;20004;-81
2023/02/25 03:32:11;;;;;;;;;;;;;;;3.30;100.00;-18116.72;4971410;28;19981;-81
2023/02/25 03:34:42;;;;;;;;;;;;;;;3.38;100.00;-18118.78;4971782;28;19965;-81
2023/02/25 03:37:14;;;;;;;;;;;;;;;3.34;100.00;-18117.81;4970997;28;20514;-81
2023/02/25 03:39:41;;;;;;;;;;;;;;;3.29;100.00;-18116.44;4965485;28;19935;-81
2023/02/25 03:42:10;;;;;;;;;;;;;;;3.28;100.00;-18116.00;4969553;28;19926;-81
2023/02/25 03:44:38;;;;;;;;;;;;;;;3.24;100.00;-18115.06;4965941;28;20393;-81
2023/02/25 03:47:06;;;;;;;;;;;;;;;3.24;100.00;-18115.06;4968123;28;19930;-81
2023/02/25 03:49:37;;;;;;;;;;;;;;;3.23;100.00;-18114.78;4970187;28;19922;-81
2023/02/25 03:52:04;;;;;;;;;;;;;;;3.23;100.00;-18114.78;4955973;28;19926;-82
2023/02/25 03:54:30;;;;;;;;;;;;;;;3.25;100.00;-18115.31;4971957;28;19926;-80
2023/02/25 03:56:55;;;;;;;;;;;;;;;3.23;100.00;-18114.63;4970988;28;19997;-82
2023/02/25 03:59:25;;;;;;;;;;;;;;;3.30;100.00;-18116.72;4949711;28;19922;-82
2023/02/25 04:01:52;;;;;;;;;;;;;;;3.30;100.00;-18116.56;4963609;28;19930;-81
2023/02/25 04:04:17;;;;;;;;;;;;;;;3.29;100.00;-18116.44;4973045;28;19922;-82
2023/02/25 04:06:42;;;;;;;;;;;;;;;3.29;100.00;-18116.28;4971925;28;20315;-80
2023/02/25 04:09:08;;;;;;;;;;;;;;;3.30;100.00;-18116.72;4972862;28;19925;-78
2023/02/25 04:11:33;;;;;;;;;;;;;;;3.30;100.00;-18116.72;4973524;28;19926;-79
2023/02/25 04:13:58;;;;;;;;;;;;;;;3.31;100.00;-18117.00;4973663;28;19946;-80
2023/02/25 04:16:23;;;;;;;;;;;;;;;3.34;100.00;-18117.69;4973316;28;20602;-80
2023/02/25 04:18:49;;;;;;;;;;;;;;;3.35;100.00;-18117.94;4973289;28;19962;-80
2023/02/25 04:21:25;;;;;;;;;;;;;;;3.34;100.00;-18117.81;4973256;28;19926;-82
2023/02/25 04:23:50;;;;;;;;;;;;;;;3.34;100.00;-18117.81;4978450;28;19968;-82
2023/02/25 04:26:15;;;;;;;;;;;;;;;3.34;100.00;-18117.81;4979296;28;20287;-81
2023/02/25 04:28:41;;;;;;;;;;;;;;;3.38;100.00;-18118.91;4977687;28;19930;-80
2023/02/25 04:31:06;;;;;;;;;;;;;;;3.38;100.00;-18118.91;4975243;28;19945;-81
2023/02/25 04:33:31;;;;;;;;;;;;;;;3.38;100.00;-18118.91;4972803;28;19922;-81
2023/02/25 04:35:56;;;;;;;;;;;;;;;3.44;100.00;-18120.31;4971609;28;19981;-81
2023/02/25 04:38:22;;;;;;;;;;;;;;;3.41;100.00;-18119.63;4974416;28;20014;-78
2023/02/25 04:40:49;;;;;;;;;;;;;;;3.41;100.00;-18119.47;4972769;28;20001;-80
2023/02/25 04:43:14;;;;;;;;;;;;;;;3.38;100.00;-18118.91;4975315;28;20453;-82
2023/02/25 04:45:40;;;;;;;;;;;;;;;3.34;100.00;-18117.81;4974325;28;20055;-80
2023/02/25 04:48:05;;;;;;;;;;;;;;;3.34;100.00;-18117.81;4974734;28;19961;-82
2023/02/25 04:50:30;;;;;;;;;;;;;;;3.33;100.00;-18117.41;4976534;28;19950;-81
2023/02/25 04:52:58;;;;;;;;;;;;;;;3.36;100.00;-18118.22;4972643;28;19977;-81
2023/02/25 04:55:23;;;;;;;;;;;;;;;3.37;100.00;-18118.66;4975137;28;19926;-81
2023/02/25 04:57:48;;;;;;;;;;;;;;;3.37;100.00;-18118.66;4973787;28;19993;-81
2023/02/25 05:00:15;;;;;;;;;;;;;;;3.36;100.00;-18118.22;4975383;28;19930;-80
2023/02/25 05:02:41;;;;;;;;;;;;;;;3.36;100.00;-18118.38;4973902;28;19976;-79
2023/02/25 05:05:07;;;;;;;;;;;;;;;3.36;100.00;-18118.22;4975538;28;19929;-81
2023/02/25 05:07:32;;;;;;;;;;;;;;;3.40;100.00;-18119.34;4976838;28;19935;-81
2023/02/25 05:09:57;;;;;;;;;;;;;;;3.42;100.00;-18119.75;4974206;28;19929;-81
2023/02/25 05:12:22;;;;;;;;;;;;;;;3.41;100.00;-18119.47;4972944;28;19977;-81
2023/02/25 05:14:47;;;;;;;;;;;;;;;3.38;100.00;-18118.91;4974859;28;19934;-81
2023/02/25 05:17:14;;;;;;;;;;;;;;;3.38;100.00;-18118.78;4975755;28;19922;-81
2023/02/25 05:19:40;;;;;;;;;;;;;;;3.35;100.00;-18118.09;4976570;28;20291;-79
2023/02/25 05:22:05;;;;;;;;;;;;;;;3.37;100.00;-18118.66;4976517;28;19984;-81
2023/02/25 05:24:30;;;;;;;;;;;;;;;3.35;100.00;-18118.09;4976023;28;19926;-80
2023/02/25 05:26:56;;;;;;;;;;;;;;;3.33;100.00;-18117.41;4975172;28;20293;-81
2023/02/25 05:29:21;;;;;;;;;;;;;;;3.29;100.00;-18116.28;4976259;28;19922;-81
2023/02/25 05:31:48;;;;;;;;;;;;;;;3.26;100.00;-18115.59;4974754;28;19922;-80
2023/02/25 05:34:14;;;;;;;;;;;;;;;3.25;100.00;-18115.19;4971441;28;20374;-81
2023/02/25 05:36:40;;;;;;;;;;;;;;;3.22;100.00;-18114.34;4973229;28;19945;-80
2023/02/25 05:39:05;;;;;;;;;;;;;;;3.21;100.00;-18114.22;4972733;28;19922;-81
2023/02/25 05:41:30;;;;;;;;;;;;;;;3.19;100.00;-18113.53;4971716;28;19944;-82
2023/02/25 05:43:56;;;;;;;;;;;;;;;3.19;100.00;-18113.53;4972862;28;20630;-81
2023/02/25 05:46:22;;;;;;;;;;;;;;;3.17;100.00;-18113.13;4975420;28;19922;-81
2023/02/25 05:48:48;;;;;;;;;;;;;;;3.15;100.00;-18112.69;4974234;28;20393;-80
2023/02/25 05:51:15;;;;;;;;;;;;;;;3.11;100.00;-18111.47;4972889;28;19926;-79
2023/02/25 05:53:41;;;;;;;;;;;;;;;3.10;100.00;-18111.19;4974163;28;19926;-81
2023/02/25 05:56:08;;;;;;;;;;;;;;;3.11;100.00;-18111.47;4972516;28;19937;-81
2023/02/25 05:58:34;;;;;;;;;;;;;;;3.07;100.00;-18110.34;4974397;28;19922;-81
2023/02/25 06:00:59;;;;;;;;;;;;;;;3.09;100.00;-18110.91;4973283;28;19938;-81
2023/02/25 06:03:25;;;;;;;;;;;;;;;3.06;100.00;-18110.22;4975242;28;19922;-82
2023/02/25 06:05:52;;;;;;;;;;;;;;;3.06;100.00;-18110.06;4973583;28;19922;-80
2023/02/25 06:08:17;;;;;;;;;;;;;;;3.06;100.00;-18110.06;4974831;28;19929;-82
2023/02/25 06:10:42;;;;;;;;;;;;;;;3.06;100.00;-18110.22;4971494;28;19926;-81
2023/02/25 06:13:08;;;;;;;;;;;;;;;3.02;100.00;-18109.09;4974234;28;20382;-81
2023/02/25 06:15:36;;;;;;;;;;;;;;;3.05;100.00;-18109.78;4974704;28;19926;-80
2023/02/25 06:18:01;;;;;;;;;;;;;;;3.04;100.00;-18109.53;4973476;28;20396;-82
2023/02/25 06:20:26;;;;;;;;;;;;;;;3.07;100.00;-18110.50;4975332;28;19929;-79
2023/02/25 06:22:52;;;;;;;;;;;;;;;3.03;100.00;-18109.25;4975241;28;19922;-79
2023/02/25 06:25:17;;;;;;;;;;;;;;;3.07;100.00;-18110.34;4973971;28;19973;-82
2023/02/25 06:27:42;;;;;;;;;;;;;;;3.10;100.00;-18111.19;4973482;28;19926;-81
2023/02/25 06:30:08;;;;;;;;;;;;;;;3.02;100.00;-18109.09;4973938;28;20120;-82
2023/02/25 06:32:33;;;;;;;;;;;;;;;3.10;100.00;-18111.31;4973807;28;19922;-81
2023/02/25 06:34:59;;;;;;;;;;;;;;;3.11;100.00;-18111.59;4971752;28;19934;-79
2023/02/25 06:37:24;;;;;;;;;;;;;;;3.06;100.00;-18110.22;4970181;28;20389;-81
2023/02/25 06:39:50;;;;;;;;;;;;;;;3.09;100.00;-18110.91;4970830;28;19953;-80
2023/02/25 06:42:16;;;;;;;;;;;;;;;3.13;100.00;-18112.00;4969486;28;19930;-80
2023/02/25 06:44:41;;;;;;;;;;;;;;;3.14;100.00;-18112.28;4969730;28;20381;-79
2023/02/25 06:47:07;;;;;;;;;;;;;;;3.12;100.00;-18111.88;4968542;28;19922;-80
2023/02/25 06:49:32;;;;;;;;;;;;;;;3.11;100.00;-18111.59;4971109;28;19922;-80
2023/02/25 06:51:57;;;;;;;;;;;;;;;3.12;100.00;-18111.72;4969523;28;20309;-80
2023/02/25 06:54:23;;;;;;;;;;;;;;;3.12;100.00;-18111.72;4970567;28;19933;-81
2023/02/25 06:56:48;;;;;;;;;;;;;;;3.11;100.00;-18111.59;4971353;28;20297;-81
2023/02/25 06:59:13;;;;;;;;;;;;;;;3.12;100.00;-18111.72;4972177;28;19918;-80
2023/02/25 07:01:39;;;;;;;;;;;;;;;3.13;100.00;-18112.16;4972434;28;19926;-81
2023/02/25 07:04:04;;;;;;;;;;;;;;;3.13;100.00;-18112.00;4961622;28;19926;-79
2023/02/25 07:06:29;;;;;;;;;;;;;;;3.11;100.00;-18111.47;4951670;28;19923;-81
2023/02/25 07:08:55;;;;;;;;;;;;;;;3.07;100.00;-18110.50;4949311;28;20270;-78
2023/02/25 07:11:23;;;;;;;;;;;;;;;3.03;100.00;-18109.38;4948904;28;20429;-81
2023/02/25 07:13:49;;;;;;;;;;;;;;;3.02;100.00;-18109.09;4950801;28;19938;-81
2023/02/25 07:16:15;;;;;;;;;;;;;;;3.02;100.00;-18108.97;4952852;28;19930;-79
2023/02/25 07:18:41;;;;;;;;;;;;;;;3.00;100.00;-18108.41;4954720;28;19918;-79
2023/02/25 07:21:06;;;;;;;;;;;;;;;3.00;100.00;-18108.41;4951761;28;20029;-80
2023/02/25 07:23:32;;;;;;;;;;;;;;;3.00;100.00;-18108.56;4954662;28;19961;-80
2023/02/25 07:26:01;;;;;;;;;;;;;;;2.98;100.00;-18107.88;4950719;28;19943;-79
2023/02/25 07:28:26;;;;;;;;;;;;;;;3.01;100.00;-18108.69;4951684;29;19930;-80
2023/02/25 07:30:51;;;;;;;;;;;;;;;3.11;100.00;-18111.47;4954329;28;19962;-79
2023/02/25 07:33:16;;;;;;;;;;;;;;;3.12;100.00;-18111.72;4963236;28;19977;-80
2023/02/25 07:35:41;;;;;;;;;;;;;;;3.11;100.00;-18111.59;4960689;28;20024;-81
2023/02/25 07:38:07;;;;;;;;;;;;;;;3.08;100.00;-18110.78;4965772;28;19929;-79
2023/02/25 07:40:32;;;;;;;;;;;;;;;3.09;100.00;-18110.91;4970994;28;19922;-80
2023/02/25 07:42:57;;;;;;;;;;;;;;;3.10;100.00;-18111.19;4969484;28;19922;-79
2023/02/25 07:45:22;;;;;;;;;;;;;;;3.11;100.00;-18111.47;4973292;28;19918;-80
2023/02/25 07:47:51;;;;;;;;;;;;;;;3.17;100.00;-18113.25;4971299;28;19918;-80
2023/02/25 07:50:16;;;;;;;;;;;;;;;3.18;100.00;-18113.38;4973385;28;19918;-80
2023/02/25 07:52:41;;;;;;;;;;;;;;;3.19;100.00;-18113.53;4972936;28;19977;-79
2023/02/25 07:55:07;;;;;;;;;;;;;;;3.15;100.00;-18112.56;4971684;28;19941;-80
2023/02/25 07:57:32;;;;;;;;;;;;;;;3.18;100.00;-18113.38;4973227;28;20293;-80
2023/02/25 08:01:11;;;;;;;;;;;;;;;3.14;100.00;-18112.44;5017982;27;19933;-80
2023/02/25 08:03:37;;;;;;;;;;;;;;;3.12;100.00;-18111.72;5024166;28;20008;-80
2023/02/25 08:06:06;;;;;;;;;;;;;;;3.12;100.00;-18111.72;5021863;28;20574;-81
2023/02/25 08:08:32;;;;;;;;;;;;;;;3.09;100.00;-18110.91;5023850;28;19922;-81
2023/02/25 08:10:57;;;;;;;;;;;;;;;3.04;100.00;-18109.53;5019236;28;19925;-80
2023/02/25 08:13:22;;;;;;;;;;;;;;;3.00;100.00;-18108.41;5023364;28;20493;-80
2023/02/25 08:15:47;;;;;;;;;;;;;;;2.96;100.00;-18107.44;5021865;28;19922;-80
2023/02/25 08:18:13;;;;;;;;;;;;;;;2.97;100.00;-18107.72;5023953;28;19988;-81
2023/02/25 08:20:38;;;;;;;;;;;;;;;2.97;100.00;-18107.72;5021743;28;20293;-80
2023/02/25 08:23:03;;;;;;;;;;;;;;;3.00;100.00;-18108.41;5018533;28;19929;-82
2023/02/25 08:25:29;;;;;;;;;;;;;;;3.02;100.00;-18108.97;5018990;28;19936;-82
2023/02/25 08:27:54;;;;;;;;;;;;;;;3.00;100.00;-18108.41;4933307;28;78508;-82
2023/02/25 08:30:22;;;;;;;;;;;;;;;3.02;100.00;-18108.97;4979360;28;61757;-83
2023/02/25 08:32:47;;;;;;;;;;;;;;;3.05;100.00;-18109.78;5092103;28;19927;-83
2023/02/25 08:35:13;;;;;;;;;;;;;;;2.97;100.00;-18107.72;5093529;28;19928;-82
2023/02/25 08:37:38;;;;;;;;;;;;;;;2.98;100.00;-18107.88;5072220;27;19925;-81
2023/02/25 08:40:09;;;;;;;;;;;;;;;2.97;100.00;-18107.59;4989708;28;19992;-83
2023/02/25 08:42:34;;;;;;;;;;;;;;;2.97;100.00;-18107.72;4992976;28;19922;-83
2023/02/25 08:44:59;;;;;;;;;;;;;;;2.93;100.00;-18106.75;4990988;28;19952;-82
2023/02/25 08:47:24;;;;;;;;;;;;;;;2.93;100.00;-18106.75;5000084;28;19983;-82
2023/02/25 08:49:51;;;;;;;;;;;;;;;2.91;100.00;-18106.19;4993736;28;19921;-83
2023/02/25 08:52:16;;;;;;;;;;;;;;;2.91;100.00;-18106.19;4986389;28;19926;-83
2023/02/25 08:54:41;;;;;;;;;;;;;;;2.90;100.00;-18105.78;4987899;28;19933;-81
2023/02/25 08:57:06;;;;;;;;;;;;;;;2.98;100.00;-18108.00;4986438;28;19960;-82
2023/02/25 08:59:34;;;;;;;;;;;;;;;3.04;100.00;-18109.53;4991650;28;20572;-83
2023/02/25 09:02:05;;;;;;;;;;;;;;;3.11;100.00;-18111.59;5000878;28;19930;-82
2023/02/25 09:04:30;;;;;;;;;;;;;;;3.24;100.00;-18115.06;5023286;27;19922;-84
2023/02/25 09:06:57;;;;;;;;;;;;;;;3.25;100.00;-18115.19;4983221;28;19930;-84
2023/02/25 09:09:23;;;;;;;;;;;;;;;3.27;100.00;-18115.88;4998207;28;20384;-85
2023/02/25 09:11:48;;;;;;;;;;;;;;;3.36;100.00;-18118.38;4987463;28;19922;-85
2023/02/25 09:14:14;;;;;;;;;;;;;;;3.42;100.00;-18119.75;4984572;28;20571;-84
2023/02/25 09:16:39;;;;;;;;;;;;;;;3.37;100.00;-18118.66;4979274;28;20583;-84
2023/02/25 09:19:04;;;;;;;;;;;;;;;3.38;100.00;-18118.91;4978212;28;19969;-85
2023/02/25 09:21:30;;;;;;;;;;;;;;;3.39;100.00;-18119.06;4981623;28;20013;-84
2023/02/25 09:23:57;;;;;;;;;;;;;;;3.53;100.00;-18122.78;4976220;28;19993;-84
2023/02/25 09:26:22;;;;;;;;;;;;;;;3.49;100.00;-18121.81;4973911;28;20041;-83
2023/02/25 09:28:48;;;;;;;;;;;;;;;3.56;100.00;-18123.63;4979090;28;20416;-84
2023/02/25 09:31:14;;;;;;;;;;;;;;;3.62;100.00;-18125.28;4972557;28;20336;-84
2023/02/25 09:33:41;;;;;;;;;;;;;;;3.61;100.00;-18125.13;4972439;28;19926;-84
2023/02/25 09:36:08;;;;;;;;;;;;;;;3.68;100.00;-18126.94;4977972;28;20397;-85
2023/02/25 09:38:37;;;;;;;;;;;;;;;3.73;100.00;-18128.19;4997878;28;20024;-84
2023/02/25 09:41:03;;;;;;;;;;;;;;;3.84;100.00;-18131.22;4936454;28;83219;-84
2023/02/25 09:43:38;;;;;;;;;;;;;;;3.76;100.00;-18129.16;4987484;28;20530;-84
2023/02/25 09:46:17;;;;;;;;;;;;;;;3.81;100.00;-18130.38;4969258;28;19940;-84
2023/02/25 09:48:48;;;;;;;;;;;;;;;3.91;100.00;-18133.00;4974701;28;20431;-84
2023/02/25 09:51:21;;;;;;;;;;;;;;;3.97;100.00;-18134.81;5031775;28;20407;-85
2023/02/25 09:53:52;;;;;;;;;;;;;;;4.10;100.00;-18138.13;5021683;28;19945;-84
2023/02/25 09:56:18;;;;;;;;;;;;;;;4.07;100.00;-18137.56;5075929;28;19990;-84
2023/02/25 09:58:48;;;;;;;;;;;;;;;4.24;100.00;-18142.13;5079322;28;19920;-85
2023/02/25 10:01:18;;;;;;;;;;;;;;;4.24;100.00;-18142.00;5087831;28;19916;-83
2023/02/25 10:03:43;;;;;;;;;;;;;;;4.25;100.00;-18142.28;5081207;28;20391;-84
2023/02/25 10:06:16;;;;;;;;;;;;;;;4.25;100.00;-18142.41;5077288;28;19927;-84
2023/02/25 10:08:43;;;;;;;;;;;;;;;4.33;100.00;-18144.47;5081355;28;19924;-84
2023/02/25 10:11:13;;;;;;;;;;;;;;;4.32;100.00;-18144.06;5082110;28;19928;-84
2023/02/25 10:13:44;;;;;;;;;;;;;;;4.41;100.00;-18146.56;5080523;28;19931;-85
2023/02/25 10:16:28;;;;;;;;;;;;;;;4.40;100.00;-18146.41;5079206;28;20042;-84
2023/02/25 10:19:07;;;;;;;;;;;;;;;4.45;100.00;-18147.66;5084929;28;19934;-84
2023/02/25 10:21:51;;;;;;;;;;;;;;;4.55;100.00;-18150.28;4989919;28;20013;-84
2023/02/25 10:24:19;;;;;;;;;;;;;;;4.60;100.00;-18151.66;4983662;28;20346;-84
2023/02/25 10:26:54;;;;;;;;;;;;;;;4.66;100.00;-18153.47;4997255;28;19924;-84
2023/02/25 10:29:40;;;;;;;;;;;;;;;4.74;100.00;-18155.53;4997568;28;20338;-84
2023/02/25 10:32:24;;;;;;;;;;;;;;;4.80;100.00;-18157.03;4999047;28;19944;-82
2023/02/25 10:34:56;;;;;;;;;;;;;;;4.89;100.00;-18159.53;5000845;28;20400;-83
2023/02/25 10:37:32;;;;;;;;;;;;;;;4.70;100.00;-18154.44;5002380;28;19985;-82
2023/02/25 10:39:59;;;;;;;;;;;;;;;4.53;100.00;-18149.88;4995631;28;20404;-83
2023/02/25 10:42:25;;;;;;;;;;;;;;;4.52;100.00;-18149.59;4999743;28;19929;-83
2023/02/25 10:44:50;;;;;;;;;;;;;;;4.53;100.00;-18150.00;4997797;28;19921;-83
2023/02/25 10:47:44;;;;;;;;;;;;;;;4.48;100.00;-18148.47;5000231;28;20142;-83
2023/02/25 10:50:10;;;;;;;;;;;;;;;4.46;100.00;-18148.06;5006300;28;19928;-83
2023/02/25 10:52:50;;;;;;;;;;;;;;;4.61;100.00;-18152.06;4998425;28;19926;-83
2023/02/25 10:55:26;;;;;;;;;;;;;;;4.66;100.00;-18153.47;4993468;28;19994;-83
2023/02/25 10:57:51;;;;;;;;;;;;;;;4.75;100.00;-18155.94;4993904;28;19918;-83
2023/02/25 11:00:25;;;;;;;;;;;;;;;4.83;100.00;-18157.88;4992832;28;20017;-82
2023/02/25 11:02:50;;;;;;;;;;;;;;;4.90;100.00;-18159.94;5001722;28;19921;-83
2023/02/25 11:05:37;;;;;;;;;;;;;;;4.80;100.00;-18157.03;5000098;28;20004;-83
2023/02/25 11:08:06;;;;;;;;;;;;;;;4.71;100.00;-18154.69;5001917;28;19961;-82
2023/02/25 11:10:32;;;;;;;;;;;;;;;4.77;100.00;-18156.22;4996315;28;19975;-83
2023/02/25 11:12:58;;;;;;;;;;;;;;;4.68;100.00;-18153.88;4999437;28;20000;-83
2023/02/25 11:15:33;;;;;;;;;;;;;;;4.66;100.00;-18153.47;5002185;28;20458;-83
2023/02/25 11:18:02;;;;;;;;;;;;;;;4.85;100.00;-18158.44;4996876;28;19961;-82
2023/02/25 11:20:28;;;;;;;;;;;;;;;4.91;100.00;-18160.09;4995722;28;19926;-83
2023/02/25 11:22:55;;;;;;;;;;;;;;;5.03;100.00;-18163.41;4993910;28;19947;-84
2023/02/25 11:25:42;;;;;;;;;;;;;;;5.21;100.00;-18168.22;4997982;28;19972;-83
2023/02/25 11:28:25;;;;;;;;;;;;;;;5.29;100.00;-18170.28;4996773;28;20354;-83
2023/02/25 11:30:51;;;;;;;;;;;;;;;5.33;100.00;-18171.53;4998498;28;20575;-83
2023/02/25 11:33:37;;;;;;;;;;;;;;;5.28;100.00;-18170.16;4991747;28;19933;-83
2023/02/25 11:36:03;;;;;;;;;;;;;;;5.14;100.00;-18166.28;5000784;28;19925;-83
2023/02/25 11:38:32;;;;;;;;;;;;;;;5.07;100.00;-18164.50;4999467;28;19975;-82
2023/02/25 11:40:57;;;;;;;;;;;;;;;4.95;100.00;-18161.19;4998520;28;20468;-83
2023/02/25 11:43:23;;;;;;;;;;;;;;;4.90;100.00;-18159.94;5002283;28;19953;-84
2023/02/25 11:45:54;;;;;;;;;;;;;;;4.89;100.00;-18159.66;4998174;28;20316;-83
2023/02/25 11:48:39;;;;;;;;;;;;;;;5.03;100.00;-18163.25;4996621;28;20371;-83
2023/02/25 11:51:13;;;;;;;;;;;;;;;5.10;100.00;-18165.31;4999554;28;19941;-83
2023/02/25 11:54:01;;;;;;;;;;;;;;;5.20;100.00;-18168.09;5005288;28;19936;-83
2023/02/25 11:56:29;;;;;;;;;;;;;;;5.33;100.00;-18171.41;5014007;28;20586;-83
2023/02/25 11:58:54;;;;;;;;;;;;;;;5.48;100.00;-18175.41;5003112;28;19955;-83
2023/02/25 12:01:41;;;;;;;;;;;;;;;5.53;100.00;-18176.91;5002604;28;20440;-83
2023/02/25 12:04:18;;;;;;;;;;;;;;;5.61;100.00;-18179.13;4999696;28;19930;-83
2023/02/25 12:06:53;;;;;;;;;;;;;;;5.52;89.35;-18176.63;4995630;28;19929;-83
2023/02/25 12:09:37;;;;;;;;;;;;;;;5.75;100.00;-18182.72;5004134;28;20418;-83
2023/02/25 12:12:24;;;;;;;;;;;;;;;5.86;100.00;-18185.88;4998340;28;20012;-83
2023/02/25 12:14:49;;;;;;;;;;;;;;;5.82;93.24;-18184.78;4999226;28;19933;-84
2023/02/25 12:17:33;;;;;;;;;;;;;;;5.79;79.87;-18183.97;5000900;28;19921;-83
2023/02/25 12:19:58;;;;;;;;;;;;;;;5.83;87.75;-18184.91;4995896;28;20301;-83
2023/02/25 12:22:46;;;;;;;;;;;;;;;5.84;100.00;-18185.34;5000152;28;19933;-83
2023/02/25 12:25:35;;;;;;;;;;;;;;;5.86;93.80;-18185.75;4996402;28;19933;-83
2023/02/25 12:28:13;;;;;;;;;;;;;;;5.86;95.46;-18185.75;5000471;28;19971;-83
2023/02/25 12:30:41;;;;;;;;;;;;;;;5.96;98.84;-18188.50;5002915;28;20027;-83
2023/02/25 12:33:25;;;;;;;;;;;;;;;5.88;97.17;-18186.31;5000001;28;19922;-83
2023/02/25 12:35:50;;;;;;;;;;;;;;;5.75;88.05;-18182.72;4991913;28;19947;-83
2023/02/25 12:38:18;;;;;;;;;;;;;;;5.75;89.97;-18182.72;4999623;28;19926;-83
2023/02/25 12:41:02;;;;;;;;;;;;;;;5.88;91.23;-18186.31;4997583;28;20541;-83
2023/02/25 12:43:42;;;;;;;;;;;;;;;5.94;81.07;-18187.97;5013887;28;20133;-84
2023/02/25 12:46:21;;;;;;;;;;;;;;;5.96;69.52;-18188.50;4997714;28;19999;-84